sensor_id;sensor_type;location;lat;lon;timestamp;temperature;humidity
39997;DHT22;25688;52.338;21.072;2024-01-16T00:02:12;-1.40;99.90
39997;DHT22;25688;52.338;21.072;2024-01-16T00:04:38;-1.40;99.90
39997;DHT22;25688;52.338;21.072;2024-01-16T00:07:05;-1.40;99.90
39997;DHT22;25688;52.338;21.072;2024-01-16T00:09:33;-1.40;99.90
39997;DHT22;25688;52.338;21.072;2024-01-16T00:11:59;-1.40;99.90
39997;DHT22;25688;52.338;21.072;2024-01-16T00:14:26;-1.40;99.90
39997;DHT22;25688;52.338;21.072;2024-01-16T00:16:51;-1.40;99.90
39997;DHT22;25688;52.338;21.072;2024-01-16T00:19:17;-1.40;99.90
39997;DHT22;25688;52.338;21.072;2024-01-16T00:21:44;-1.40;99.90
39997;DHT22;25688;52.338;21.072;2024-01-16T00:24:16;-1.30;99.90
39997;DHT22;25688;52.338;21.072;2024-01-16T00:26:41;-1.50;99.90
39997;DHT22;25688;52.338;21.072;2024-01-16T00:29:07;-1.50;99.90
39997;DHT22;25688;52.338;21.072;2024-01-16T00:31:34;-1.50;99.90
39997;DHT22;25688;52.338;21.072;2024-01-16T00:34:00;-1.50;99.90
39997;DHT22;25688;52.338;21.072;2024-01-16T00:36:26;-1.50;99.90
39997;DHT22;25688;52.338;21.072;2024-01-16T00:38:52;-1.50;99.90
39997;DHT22;25688;52.338;21.072;2024-01-16T00:41:17;-1.50;99.90
39997;DHT22;25688;52.338;21.072;2024-01-16T00:43:43;-1.20;99.90
39997;DHT22;25688;52.338;21.072;2024-01-16T00:46:09;-1.50;99.90
39997;DHT22;25688;52.338;21.072;2024-01-16T00:48:35;-1.50;99.90
39997;DHT22;25688;52.338;21.072;2024-01-16T00:51:00;-1.20;99.90
39997;DHT22;25688;52.338;21.072;2024-01-16T00:53:27;-1.60;99.90
39997;DHT22;25688;52.338;21.072;2024-01-16T00:55:53;-0.90;99.90
39997;DHT22;25688;52.338;21.072;2024-01-16T00:58:21;-1.60;99.90
39997;DHT22;25688;52.338;21.072;2024-01-16T01:00:47;-1.60;99.90
39997;DHT22;25688;52.338;21.072;2024-01-16T01:03:12;-1.60;99.90
39997;DHT22;25688;52.338;21.072;2024-01-16T01:05:38;-1.60;99.90
39997;DHT22;25688;52.338;21.072;2024-01-16T01:08:04;-1.60;99.90
39997;DHT22;25688;52.338;21.072;2024-01-16T01:10:30;-1.60;99.90
39997;DHT22;25688;52.338;21.072;2024-01-16T01:12:55;-1.10;99.90
39997;DHT22;25688;52.338;21.072;2024-01-16T01:15:21;-1.70;99.90
39997;DHT22;25688;52.338;21.072;2024-01-16T01:17:50;-1.70;99.90
39997;DHT22;25688;52.338;21.072;2024-01-16T01:20:18;-1.80;99.90
39997;DHT22;25688;52.338;21.072;2024-01-16T01:22:45;-1.90;99.90
39997;DHT22;25688;52.338;21.072;2024-01-16T01:25:13;-2.00;99.90
39997;DHT22;25688;52.338;21.072;2024-01-16T01:27:39;-2.00;99.90
39997;DHT22;25688;52.338;21.072;2024-01-16T01:30:07;-2.10;99.90
39997;DHT22;25688;52.338;21.072;2024-01-16T01:32:34;-2.00;99.90
39997;DHT22;25688;52.338;21.072;2024-01-16T01:34:59;-2.00;99.90
39997;DHT22;25688;52.338;21.072;2024-01-16T01:37:25;-2.10;99.90
39997;DHT22;25688;52.338;21.072;2024-01-16T01:39:51;-2.10;99.90
39997;DHT22;25688;52.338;21.072;2024-01-16T01:42:17;-1.50;99.90
39997;DHT22;25688;52.338;21.072;2024-01-16T01:44:42;-2.10;99.90
39997;DHT22;25688;52.338;21.072;2024-01-16T01:47:08;-2.20;99.90
39997;DHT22;25688;52.338;21.072;2024-01-16T01:49:34;-2.20;99.90
39997;DHT22;25688;52.338;21.072;2024-01-16T01:52:01;-2.10;99.90
39997;DHT22;25688;52.338;21.072;2024-01-16T01:54:27;-2.20;99.90
39997;DHT22;25688;52.338;21.072;2024-01-16T01:56:53;-1.70;99.90
39997;DHT22;25688;52.338;21.072;2024-01-16T01:59:20;-2.10;99.90
39997;DHT22;25688;52.338;21.072;2024-01-16T02:01:48;-2.30;99.90
39997;DHT22;25688;52.338;21.072;2024-01-16T02:04:15;-2.30;99.90
39997;DHT22;25688;52.338;21.072;2024-01-16T02:06:42;-2.30;99.90
39997;DHT22;25688;52.338;21.072;2024-01-16T02:09:10;-2.30;99.90
39997;DHT22;25688;52.338;21.072;2024-01-16T02:11:39;-2.30;99.90
39997;DHT22;25688;52.338;21.072;2024-01-16T02:14:04;-2.40;99.90
39997;DHT22;25688;52.338;21.072;2024-01-16T02:16:39;-2.30;99.90
39997;DHT22;25688;52.338;21.072;2024-01-16T02:19:05;-2.30;99.90
39997;DHT22;25688;52.338;21.072;2024-01-16T02:21:39;-2.20;99.90
39997;DHT22;25688;52.338;21.072;2024-01-16T02:24:07;-2.30;99.90
39997;DHT22;25688;52.338;21.072;2024-01-16T02:26:33;-2.30;99.90
39997;DHT22;25688;52.338;21.072;2024-01-16T02:29:03;-2.30;99.90
39997;DHT22;25688;52.338;21.072;2024-01-16T02:31:32;-2.30;99.90
39997;DHT22;25688;52.338;21.072;2024-01-16T02:33:58;-2.30;99.90
39997;DHT22;25688;52.338;21.072;2024-01-16T02:36:24;-2.50;99.90
39997;DHT22;25688;52.338;21.072;2024-01-16T02:38:50;-2.60;99.90
39997;DHT22;25688;52.338;21.072;2024-01-16T02:41:16;-2.60;99.90
39997;DHT22;25688;52.338;21.072;2024-01-16T02:43:42;-2.70;99.90
39997;DHT22;25688;52.338;21.072;2024-01-16T02:46:08;-2.80;99.90
39997;DHT22;25688;52.338;21.072;2024-01-16T02:48:37;-2.90;99.90
39997;DHT22;25688;52.338;21.072;2024-01-16T02:51:03;-2.80;99.90
39997;DHT22;25688;52.338;21.072;2024-01-16T02:53:29;-2.80;99.90
39997;DHT22;25688;52.338;21.072;2024-01-16T02:55:55;-2.90;99.90
39997;DHT22;25688;52.338;21.072;2024-01-16T02:58:24;-2.90;99.90
39997;DHT22;25688;52.338;21.072;2024-01-16T03:00:50;-3.00;99.90
39997;DHT22;25688;52.338;21.072;2024-01-16T03:03:16;-3.10;99.90
39997;DHT22;25688;52.338;21.072;2024-01-16T03:05:42;-3.10;99.90
39997;DHT22;25688;52.338;21.072;2024-01-16T03:08:07;-3.10;99.90
39997;DHT22;25688;52.338;21.072;2024-01-16T03:10:33;-3.20;99.90
39997;DHT22;25688;52.338;21.072;2024-01-16T03:12:59;-3.20;99.90
39997;DHT22;25688;52.338;21.072;2024-01-16T03:15:24;-3.20;99.90
39997;DHT22;25688;52.338;21.072;2024-01-16T03:17:51;-2.60;99.90
39997;DHT22;25688;52.338;21.072;2024-01-16T03:20:17;-3.30;99.90
39997;DHT22;25688;52.338;21.072;2024-01-16T03:22:44;-3.40;99.90
39997;DHT22;25688;52.338;21.072;2024-01-16T03:25:10;-3.40;99.90
39997;DHT22;25688;52.338;21.072;2024-01-16T03:27:38;-3.50;99.90
39997;DHT22;25688;52.338;21.072;2024-01-16T03:30:05;-3.40;99.90
39997;DHT22;25688;52.338;21.072;2024-01-16T03:32:31;-3.40;99.90
39997;DHT22;25688;52.338;21.072;2024-01-16T03:34:57;-3.40;99.90
39997;DHT22;25688;52.338;21.072;2024-01-16T03:37:23;-3.30;99.90
39997;DHT22;25688;52.338;21.072;2024-01-16T03:39:49;-3.50;99.90
39997;DHT22;25688;52.338;21.072;2024-01-16T03:42:15;-3.50;99.90
39997;DHT22;25688;52.338;21.072;2024-01-16T03:44:41;-3.40;99.90
39997;DHT22;25688;52.338;21.072;2024-01-16T03:47:07;-3.30;99.90
39997;DHT22;25688;52.338;21.072;2024-01-16T03:49:33;-3.40;99.90
39997;DHT22;25688;52.338;21.072;2024-01-16T03:52:00;-3.40;99.90
39997;DHT22;25688;52.338;21.072;2024-01-16T03:54:25;-3.60;99.90
39997;DHT22;25688;52.338;21.072;2024-01-16T03:56:51;-3.60;99.90
39997;DHT22;25688;52.338;21.072;2024-01-16T03:59:17;-3.60;99.90
39997;DHT22;25688;52.338;21.072;2024-01-16T04:01:42;-3.60;99.90
39997;DHT22;25688;52.338;21.072;2024-01-16T04:04:10;-3.70;99.90
39997;DHT22;25688;52.338;21.072;2024-01-16T04:06:36;-3.70;99.90
39997;DHT22;25688;52.338;21.072;2024-01-16T04:09:02;-3.70;99.90
39997;DHT22;25688;52.338;21.072;2024-01-16T04:11:29;-3.70;99.90
39997;DHT22;25688;52.338;21.072;2024-01-16T04:13:55;-3.70;99.90
39997;DHT22;25688;52.338;21.072;2024-01-16T04:16:21;-3.80;99.90
39997;DHT22;25688;52.338;21.072;2024-01-16T04:18:47;-3.80;99.90
39997;DHT22;25688;52.338;21.072;2024-01-16T04:21:13;-3.70;99.90
39997;DHT22;25688;52.338;21.072;2024-01-16T04:23:38;-4.00;99.90
39997;DHT22;25688;52.338;21.072;2024-01-16T04:26:04;-4.10;99.90
39997;DHT22;25688;52.338;21.072;2024-01-16T04:28:30;-4.00;99.90
39997;DHT22;25688;52.338;21.072;2024-01-16T04:30:56;-3.90;99.90
39997;DHT22;25688;52.338;21.072;2024-01-16T04:33:22;-4.00;99.90
39997;DHT22;25688;52.338;21.072;2024-01-16T04:35:47;-4.00;99.90
39997;DHT22;25688;52.338;21.072;2024-01-16T04:38:13;-4.00;99.90
39997;DHT22;25688;52.338;21.072;2024-01-16T04:40:39;-4.00;99.90
39997;DHT22;25688;52.338;21.072;2024-01-16T04:43:04;-4.00;99.90
39997;DHT22;25688;52.338;21.072;2024-01-16T04:45:30;-4.10;99.90
39997;DHT22;25688;52.338;21.072;2024-01-16T04:47:56;-4.10;99.90
39997;DHT22;25688;52.338;21.072;2024-01-16T04:50:22;-4.20;99.90
39997;DHT22;25688;52.338;21.072;2024-01-16T04:52:48;-4.20;99.90
39997;DHT22;25688;52.338;21.072;2024-01-16T04:55:14;-4.30;99.90
39997;DHT22;25688;52.338;21.072;2024-01-16T04:57:40;-4.40;99.90
39997;DHT22;25688;52.338;21.072;2024-01-16T05:00:07;-4.30;99.90
39997;DHT22;25688;52.338;21.072;2024-01-16T05:02:33;-4.40;99.90
39997;DHT22;25688;52.338;21.072;2024-01-16T05:04:59;-4.40;99.90
39997;DHT22;25688;52.338;21.072;2024-01-16T05:07:25;-4.50;99.90
39997;DHT22;25688;52.338;21.072;2024-01-16T05:09:52;-4.40;99.90
39997;DHT22;25688;52.338;21.072;2024-01-16T05:12:17;-4.50;99.90
39997;DHT22;25688;52.338;21.072;2024-01-16T05:14:43;-4.50;99.90
39997;DHT22;25688;52.338;21.072;2024-01-16T05:17:09;-4.00;99.90
39997;DHT22;25688;52.338;21.072;2024-01-16T05:19:34;-4.70;99.90
39997;DHT22;25688;52.338;21.072;2024-01-16T05:22:00;-4.80;99.90
39997;DHT22;25688;52.338;21.072;2024-01-16T05:24:26;-4.80;99.90
39997;DHT22;25688;52.338;21.072;2024-01-16T05:26:51;-4.90;99.90
39997;DHT22;25688;52.338;21.072;2024-01-16T05:29:18;-5.00;99.90
39997;DHT22;25688;52.338;21.072;2024-01-16T05:31:44;-5.00;99.90
39997;DHT22;25688;52.338;21.072;2024-01-16T05:34:10;-4.80;99.90
39997;DHT22;25688;52.338;21.072;2024-01-16T05:36:36;-4.80;99.90
39997;DHT22;25688;52.338;21.072;2024-01-16T05:39:02;-4.60;99.90
39997;DHT22;25688;52.338;21.072;2024-01-16T05:41:32;-4.80;99.90
39997;DHT22;25688;52.338;21.072;2024-01-16T05:43:58;-4.90;99.90
39997;DHT22;25688;52.338;21.072;2024-01-16T05:46:24;-4.90;99.90
39997;DHT22;25688;52.338;21.072;2024-01-16T05:48:50;-4.80;99.90
39997;DHT22;25688;52.338;21.072;2024-01-16T05:51:15;-4.80;99.90
39997;DHT22;25688;52.338;21.072;2024-01-16T05:53:41;-4.80;99.90
39997;DHT22;25688;52.338;21.072;2024-01-16T05:56:07;-4.80;99.90
39997;DHT22;25688;52.338;21.072;2024-01-16T05:58:33;-4.70;99.90
39997;DHT22;25688;52.338;21.072;2024-01-16T06:01:05;-4.70;99.90
39997;DHT22;25688;52.338;21.072;2024-01-16T06:03:31;-4.70;99.90
39997;DHT22;25688;52.338;21.072;2024-01-16T06:05:58;-4.70;99.90
39997;DHT22;25688;52.338;21.072;2024-01-16T06:08:24;-4.70;99.90
39997;DHT22;25688;52.338;21.072;2024-01-16T06:10:50;-4.70;99.90
39997;DHT22;25688;52.338;21.072;2024-01-16T06:13:19;-4.70;99.90
39997;DHT22;25688;52.338;21.072;2024-01-16T06:15:44;-4.60;99.90
39997;DHT22;25688;52.338;21.072;2024-01-16T06:18:10;-4.60;99.90
39997;DHT22;25688;52.338;21.072;2024-01-16T06:20:36;-4.60;99.90
39997;DHT22;25688;52.338;21.072;2024-01-16T06:23:02;-4.70;99.90
39997;DHT22;25688;52.338;21.072;2024-01-16T06:25:27;-4.70;99.90
39997;DHT22;25688;52.338;21.072;2024-01-16T06:27:53;-4.70;99.90
39997;DHT22;25688;52.338;21.072;2024-01-16T06:30:19;-4.70;99.90
39997;DHT22;25688;52.338;21.072;2024-01-16T06:32:44;-4.70;99.90
39997;DHT22;25688;52.338;21.072;2024-01-16T06:35:12;-4.70;99.90
39997;DHT22;25688;52.338;21.072;2024-01-16T06:37:38;-4.70;99.90
39997;DHT22;25688;52.338;21.072;2024-01-16T06:40:04;-4.20;99.90
39997;DHT22;25688;52.338;21.072;2024-01-16T06:42:31;-4.70;99.90
39997;DHT22;25688;52.338;21.072;2024-01-16T06:44:57;-4.60;99.90
39997;DHT22;25688;52.338;21.072;2024-01-16T06:47:22;-4.60;99.90
39997;DHT22;25688;52.338;21.072;2024-01-16T06:49:49;-4.30;99.90
39997;DHT22;25688;52.338;21.072;2024-01-16T06:52:15;-4.70;99.90
39997;DHT22;25688;52.338;21.072;2024-01-16T06:54:41;-4.70;99.90
39997;DHT22;25688;52.338;21.072;2024-01-16T06:57:06;-4.70;99.90
39997;DHT22;25688;52.338;21.072;2024-01-16T06:59:32;-4.70;99.90
39997;DHT22;25688;52.338;21.072;2024-01-16T07:01:58;-4.60;99.90
39997;DHT22;25688;52.338;21.072;2024-01-16T07:04:24;-4.70;99.90
39997;DHT22;25688;52.338;21.072;2024-01-16T07:06:49;-4.80;99.90
39997;DHT22;25688;52.338;21.072;2024-01-16T07:09:15;-4.80;99.90
39997;DHT22;25688;52.338;21.072;2024-01-16T07:11:41;-4.90;99.90
39997;DHT22;25688;52.338;21.072;2024-01-16T07:14:09;-4.90;99.90
39997;DHT22;25688;52.338;21.072;2024-01-16T07:16:35;-5.00;99.90
39997;DHT22;25688;52.338;21.072;2024-01-16T07:19:01;-5.00;99.90
39997;DHT22;25688;52.338;21.072;2024-01-16T07:21:27;-5.10;99.90
39997;DHT22;25688;52.338;21.072;2024-01-16T07:23:54;-5.00;99.90
39997;DHT22;25688;52.338;21.072;2024-01-16T07:26:19;-5.10;99.90
39997;DHT22;25688;52.338;21.072;2024-01-16T07:28:45;-5.10;99.90
39997;DHT22;25688;52.338;21.072;2024-01-16T07:31:13;-4.60;99.90
39997;DHT22;25688;52.338;21.072;2024-01-16T07:33:39;-5.10;99.90
39997;DHT22;25688;52.338;21.072;2024-01-16T07:36:06;-4.90;99.90
39997;DHT22;25688;52.338;21.072;2024-01-16T07:38:32;-5.10;99.90
39997;DHT22;25688;52.338;21.072;2024-01-16T07:40:59;-5.10;99.90
39997;DHT22;25688;52.338;21.072;2024-01-16T07:43:25;-5.20;99.90
39997;DHT22;25688;52.338;21.072;2024-01-16T07:45:50;-5.20;99.90
39997;DHT22;25688;52.338;21.072;2024-01-16T07:48:16;-5.20;99.90
39997;DHT22;25688;52.338;21.072;2024-01-16T07:50:42;-5.10;99.90
39997;DHT22;25688;52.338;21.072;2024-01-16T07:53:07;-5.10;99.90
39997;DHT22;25688;52.338;21.072;2024-01-16T07:55:33;-5.10;99.90
39997;DHT22;25688;52.338;21.072;2024-01-16T07:57:59;-5.10;99.90
39997;DHT22;25688;52.338;21.072;2024-01-16T08:00:24;-5.10;99.90
39997;DHT22;25688;52.338;21.072;2024-01-16T08:02:50;-5.00;99.90
39997;DHT22;25688;52.338;21.072;2024-01-16T08:05:16;-5.10;99.90
39997;DHT22;25688;52.338;21.072;2024-01-16T08:07:44;-5.00;99.90
39997;DHT22;25688;52.338;21.072;2024-01-16T08:10:10;-5.00;99.90
39997;DHT22;25688;52.338;21.072;2024-01-16T08:12:36;-5.00;99.90
39997;DHT22;25688;52.338;21.072;2024-01-16T08:15:04;-5.00;99.90
39997;DHT22;25688;52.338;21.072;2024-01-16T08:17:29;-5.00;99.90
39997;DHT22;25688;52.338;21.072;2024-01-16T08:19:55;-5.00;99.90
39997;DHT22;25688;52.338;21.072;2024-01-16T08:22:20;-4.90;99.90
39997;DHT22;25688;52.338;21.072;2024-01-16T08:24:46;-4.60;99.90
39997;DHT22;25688;52.338;21.072;2024-01-16T08:27:12;-4.80;99.90
39997;DHT22;25688;52.338;21.072;2024-01-16T08:29:38;-4.80;99.90
39997;DHT22;25688;52.338;21.072;2024-01-16T08:32:03;-4.80;99.90
39997;DHT22;25688;52.338;21.072;2024-01-16T08:34:29;-4.80;99.90
39997;DHT22;25688;52.338;21.072;2024-01-16T08:36:55;-4.80;99.90
39997;DHT22;25688;52.338;21.072;2024-01-16T08:39:22;-4.80;99.90
39997;DHT22;25688;52.338;21.072;2024-01-16T08:41:49;-4.70;99.90
39997;DHT22;25688;52.338;21.072;2024-01-16T08:44:15;-4.60;99.90
39997;DHT22;25688;52.338;21.072;2024-01-16T08:46:41;-4.60;99.90
39997;DHT22;25688;52.338;21.072;2024-01-16T08:49:07;-4.60;99.90
39997;DHT22;25688;52.338;21.072;2024-01-16T08:51:34;-4.60;99.90
39997;DHT22;25688;52.338;21.072;2024-01-16T08:54:00;-4.50;99.90
39997;DHT22;25688;52.338;21.072;2024-01-16T08:56:25;-4.50;99.90
39997;DHT22;25688;52.338;21.072;2024-01-16T08:58:51;-4.40;99.90
39997;DHT22;25688;52.338;21.072;2024-01-16T09:01:17;-4.40;99.90
39997;DHT22;25688;52.338;21.072;2024-01-16T09:03:42;-4.40;99.90
39997;DHT22;25688;52.338;21.072;2024-01-16T09:06:08;-4.30;99.90
39997;DHT22;25688;52.338;21.072;2024-01-16T09:08:35;-4.20;99.90
39997;DHT22;25688;52.338;21.072;2024-01-16T09:11:01;-4.20;99.90
39997;DHT22;25688;52.338;21.072;2024-01-16T09:13:27;-4.20;99.90
39997;DHT22;25688;52.338;21.072;2024-01-16T09:15:52;-4.20;99.90
39997;DHT22;25688;52.338;21.072;2024-01-16T09:18:18;-4.10;99.90
39997;DHT22;25688;52.338;21.072;2024-01-16T09:20:44;-4.10;99.90
39997;DHT22;25688;52.338;21.072;2024-01-16T09:23:10;-3.60;99.90
39997;DHT22;25688;52.338;21.072;2024-01-16T09:25:36;-4.00;99.90
39997;DHT22;25688;52.338;21.072;2024-01-16T09:28:02;-4.00;99.90
39997;DHT22;25688;52.338;21.072;2024-01-16T09:30:27;-4.00;99.90
39997;DHT22;25688;52.338;21.072;2024-01-16T09:32:53;-3.90;99.90
39997;DHT22;25688;52.338;21.072;2024-01-16T09:35:19;-3.90;99.90
39997;DHT22;25688;52.338;21.072;2024-01-16T09:37:45;-3.70;99.90
39997;DHT22;25688;52.338;21.072;2024-01-16T09:40:11;-3.90;99.90
39997;DHT22;25688;52.338;21.072;2024-01-16T09:42:37;-3.80;99.90
39997;DHT22;25688;52.338;21.072;2024-01-16T09:45:03;-3.90;99.90
39997;DHT22;25688;52.338;21.072;2024-01-16T09:47:31;-3.90;99.90
39997;DHT22;25688;52.338;21.072;2024-01-16T09:49:59;-3.60;99.90
39997;DHT22;25688;52.338;21.072;2024-01-16T09:52:26;-3.80;99.90
39997;DHT22;25688;52.338;21.072;2024-01-16T09:54:52;-3.70;99.90
39997;DHT22;25688;52.338;21.072;2024-01-16T09:57:19;-3.80;99.90
39997;DHT22;25688;52.338;21.072;2024-01-16T09:59:48;-3.70;99.90
39997;DHT22;25688;52.338;21.072;2024-01-16T10:02:14;-3.70;99.90
39997;DHT22;25688;52.338;21.072;2024-01-16T10:04:42;-3.70;99.90
39997;DHT22;25688;52.338;21.072;2024-01-16T10:07:12;-3.60;99.90
39997;DHT22;25688;52.338;21.072;2024-01-16T10:09:38;-3.60;99.90
39997;DHT22;25688;52.338;21.072;2024-01-16T10:12:05;-3.60;99.90
39997;DHT22;25688;52.338;21.072;2024-01-16T10:14:33;-3.60;99.90
39997;DHT22;25688;52.338;21.072;2024-01-16T10:19:26;-3.10;99.90
39997;DHT22;25688;52.338;21.072;2024-01-16T10:21:52;-3.50;99.90
39997;DHT22;25688;52.338;21.072;2024-01-16T10:24:18;-3.50;99.90
39997;DHT22;25688;52.338;21.072;2024-01-16T10:26:44;-3.60;99.90
39997;DHT22;25688;52.338;21.072;2024-01-16T10:29:09;-3.50;99.90
39997;DHT22;25688;52.338;21.072;2024-01-16T10:31:35;-3.50;99.90
39997;DHT22;25688;52.338;21.072;2024-01-16T10:34:00;-3.50;99.90
39997;DHT22;25688;52.338;21.072;2024-01-16T10:36:26;-3.40;99.90
39997;DHT22;25688;52.338;21.072;2024-01-16T10:38:52;-3.40;99.90
39997;DHT22;25688;52.338;21.072;2024-01-16T10:41:27;-3.40;99.90
39997;DHT22;25688;52.338;21.072;2024-01-16T10:44:06;-3.40;99.90
39997;DHT22;25688;52.338;21.072;2024-01-16T10:46:35;-3.40;99.90
39997;DHT22;25688;52.338;21.072;2024-01-16T10:49:05;-3.30;99.90
39997;DHT22;25688;52.338;21.072;2024-01-16T10:51:31;-3.40;99.90
39997;DHT22;25688;52.338;21.072;2024-01-16T10:54:03;-3.40;99.90
39997;DHT22;25688;52.338;21.072;2024-01-16T10:56:32;-3.40;99.90
39997;DHT22;25688;52.338;21.072;2024-01-16T10:59:18;-3.30;99.90
39997;DHT22;25688;52.338;21.072;2024-01-16T11:01:48;-3.30;99.90
39997;DHT22;25688;52.338;21.072;2024-01-16T11:04:15;-3.30;99.90
39997;DHT22;25688;52.338;21.072;2024-01-16T11:06:42;-3.20;99.90
39997;DHT22;25688;52.338;21.072;2024-01-16T11:09:09;-3.20;99.90
39997;DHT22;25688;52.338;21.072;2024-01-16T11:11:36;-3.20;99.90
39997;DHT22;25688;52.338;21.072;2024-01-16T11:14:04;-2.70;99.90
39997;DHT22;25688;52.338;21.072;2024-01-16T11:16:32;-3.20;99.90
39997;DHT22;25688;52.338;21.072;2024-01-16T11:18:58;-3.10;99.90
39997;DHT22;25688;52.338;21.072;2024-01-16T11:21:24;-3.10;99.90
39997;DHT22;25688;52.338;21.072;2024-01-16T11:23:51;-3.00;99.90
39997;DHT22;25688;52.338;21.072;2024-01-16T11:26:27;-3.10;99.90
39997;DHT22;25688;52.338;21.072;2024-01-16T11:28:54;-3.00;99.90
39997;DHT22;25688;52.338;21.072;2024-01-16T11:31:34;-3.00;99.90
39997;DHT22;25688;52.338;21.072;2024-01-16T11:34:01;-3.00;99.90
39997;DHT22;25688;52.338;21.072;2024-01-16T11:39:18;-3.00;99.90
39997;DHT22;25688;52.338;21.072;2024-01-16T11:41:52;-3.00;99.90
39997;DHT22;25688;52.338;21.072;2024-01-16T11:47:03;-3.20;99.90
39997;DHT22;25688;52.338;21.072;2024-01-16T11:49:29;-3.20;99.90
39997;DHT22;25688;52.338;21.072;2024-01-16T11:51:57;-3.20;99.90
39997;DHT22;25688;52.338;21.072;2024-01-16T11:54:23;-3.20;99.90
39997;DHT22;25688;52.338;21.072;2024-01-16T12:00:06;-3.20;99.90
39997;DHT22;25688;52.338;21.072;2024-01-16T12:02:56;-3.10;99.90
39997;DHT22;25688;52.338;21.072;2024-01-16T12:05:22;-3.10;99.90
39997;DHT22;25688;52.338;21.072;2024-01-16T12:07:51;-3.10;99.90
39997;DHT22;25688;52.338;21.072;2024-01-16T12:10:27;-3.00;99.90
39997;DHT22;25688;52.338;21.072;2024-01-16T12:12:59;-2.90;99.90
39997;DHT22;25688;52.338;21.072;2024-01-16T12:15:26;-2.80;99.90
39997;DHT22;25688;52.338;21.072;2024-01-16T12:17:57;-2.70;99.90
39997;DHT22;25688;52.338;21.072;2024-01-16T12:20:24;-2.60;99.90
39997;DHT22;25688;52.338;21.072;2024-01-16T12:22:58;-2.50;99.90
39997;DHT22;25688;52.338;21.072;2024-01-16T12:25:28;-2.50;99.90
39997;DHT22;25688;52.338;21.072;2024-01-16T12:27:58;-2.40;99.90
39997;DHT22;25688;52.338;21.072;2024-01-16T12:30:29;-2.40;99.90
39997;DHT22;25688;52.338;21.072;2024-01-16T12:33:07;-2.50;99.90
39997;DHT22;25688;52.338;21.072;2024-01-16T12:35:37;-2.60;99.90
39997;DHT22;25688;52.338;21.072;2024-01-16T12:38:13;-2.60;99.90
39997;DHT22;25688;52.338;21.072;2024-01-16T12:40:40;-2.60;99.90
39997;DHT22;25688;52.338;21.072;2024-01-16T12:43:08;-2.60;99.90
39997;DHT22;25688;52.338;21.072;2024-01-16T12:45:37;-2.60;99.90
39997;DHT22;25688;52.338;21.072;2024-01-16T12:48:03;-2.70;99.90
39997;DHT22;25688;52.338;21.072;2024-01-16T12:50:30;-2.70;99.90
39997;DHT22;25688;52.338;21.072;2024-01-16T12:55:29;-2.70;99.90
39997;DHT22;25688;52.338;21.072;2024-01-16T12:58:17;-2.60;99.90
39997;DHT22;25688;52.338;21.072;2024-01-16T13:00:47;-2.70;99.90
39997;DHT22;25688;52.338;21.072;2024-01-16T13:03:29;-2.70;99.90
39997;DHT22;25688;52.338;21.072;2024-01-16T13:05:59;-2.60;99.90
39997;DHT22;25688;52.338;21.072;2024-01-16T13:08:26;-2.60;99.90
39997;DHT22;25688;52.338;21.072;2024-01-16T13:11:05;-2.70;99.90
39997;DHT22;25688;52.338;21.072;2024-01-16T13:13:31;-2.70;99.90
39997;DHT22;25688;52.338;21.072;2024-01-16T13:15:58;-2.70;99.90
39997;DHT22;25688;52.338;21.072;2024-01-16T13:18:25;-2.80;99.90
39997;DHT22;25688;52.338;21.072;2024-01-16T13:20:52;-2.80;99.90
39997;DHT22;25688;52.338;21.072;2024-01-16T13:23:19;-2.80;99.90
39997;DHT22;25688;52.338;21.072;2024-01-16T13:25:47;-2.80;99.90
39997;DHT22;25688;52.338;21.072;2024-01-16T13:28:13;-2.90;99.90
39997;DHT22;25688;52.338;21.072;2024-01-16T13:30:40;-3.00;99.90
39997;DHT22;25688;52.338;21.072;2024-01-16T13:33:06;-3.00;99.90
39997;DHT22;25688;52.338;21.072;2024-01-16T13:35:34;-3.10;99.90
39997;DHT22;25688;52.338;21.072;2024-01-16T13:38:01;-3.10;99.90
39997;DHT22;25688;52.338;21.072;2024-01-16T13:40:27;-3.20;99.90
39997;DHT22;25688;52.338;21.072;2024-01-16T13:42:53;-3.20;99.90
39997;DHT22;25688;52.338;21.072;2024-01-16T13:45:18;-3.20;99.90
39997;DHT22;25688;52.338;21.072;2024-01-16T13:47:44;-3.30;99.90
39997;DHT22;25688;52.338;21.072;2024-01-16T13:50:09;-3.30;99.90
39997;DHT22;25688;52.338;21.072;2024-01-16T13:52:38;-3.30;99.90
39997;DHT22;25688;52.338;21.072;2024-01-16T13:55:07;-3.30;99.90
39997;DHT22;25688;52.338;21.072;2024-01-16T13:57:33;-3.40;99.90
39997;DHT22;25688;52.338;21.072;2024-01-16T14:00:06;-3.30;99.90
39997;DHT22;25688;52.338;21.072;2024-01-16T14:02:32;-3.50;99.90
39997;DHT22;25688;52.338;21.072;2024-01-16T14:05:02;-3.50;99.90
39997;DHT22;25688;52.338;21.072;2024-01-16T14:07:28;-3.60;99.90
39997;DHT22;25688;52.338;21.072;2024-01-16T14:09:54;-3.60;99.90
39997;DHT22;25688;52.338;21.072;2024-01-16T14:12:19;-3.60;99.90
39997;DHT22;25688;52.338;21.072;2024-01-16T14:14:45;-3.70;99.90
39997;DHT22;25688;52.338;21.072;2024-01-16T14:17:12;-3.40;99.90
39997;DHT22;25688;52.338;21.072;2024-01-16T14:19:38;-3.70;99.90
39997;DHT22;25688;52.338;21.072;2024-01-16T14:22:04;-3.80;99.90
39997;DHT22;25688;52.338;21.072;2024-01-16T14:24:30;-3.80;99.90
39997;DHT22;25688;52.338;21.072;2024-01-16T14:26:55;-3.90;99.90
39997;DHT22;25688;52.338;21.072;2024-01-16T14:29:24;-3.90;99.90
39997;DHT22;25688;52.338;21.072;2024-01-16T14:31:51;-4.10;99.90
39997;DHT22;25688;52.338;21.072;2024-01-16T14:34:16;-4.10;99.90
39997;DHT22;25688;52.338;21.072;2024-01-16T14:36:43;-4.10;99.90
39997;DHT22;25688;52.338;21.072;2024-01-16T14:39:08;-4.20;99.90
39997;DHT22;25688;52.338;21.072;2024-01-16T14:41:41;-4.30;99.90
39997;DHT22;25688;52.338;21.072;2024-01-16T14:44:09;-4.40;99.90
39997;DHT22;25688;52.338;21.072;2024-01-16T14:46:40;-4.50;99.90
39997;DHT22;25688;52.338;21.072;2024-01-16T14:49:08;-4.50;99.90
39997;DHT22;25688;52.338;21.072;2024-01-16T14:51:34;-4.70;99.90
39997;DHT22;25688;52.338;21.072;2024-01-16T14:54:00;-4.60;99.90
39997;DHT22;25688;52.338;21.072;2024-01-16T14:56:27;-4.70;99.90
39997;DHT22;25688;52.338;21.072;2024-01-16T14:58:53;-4.50;99.90
39997;DHT22;25688;52.338;21.072;2024-01-16T15:01:18;-4.70;99.90
39997;DHT22;25688;52.338;21.072;2024-01-16T15:03:44;-4.80;99.90
39997;DHT22;25688;52.338;21.072;2024-01-16T15:06:10;-4.80;99.90
39997;DHT22;25688;52.338;21.072;2024-01-16T15:08:38;-4.70;99.90
39997;DHT22;25688;52.338;21.072;2024-01-16T15:11:04;-4.70;99.90
39997;DHT22;25688;52.338;21.072;2024-01-16T15:13:31;-4.60;99.90
39997;DHT22;25688;52.338;21.072;2024-01-16T15:15:57;-4.50;99.90
39997;DHT22;25688;52.338;21.072;2024-01-16T15:18:22;-4.40;99.90
39997;DHT22;25688;52.338;21.072;2024-01-16T15:20:48;-3.90;99.90
39997;DHT22;25688;52.338;21.072;2024-01-16T15:23:14;-4.30;99.90
39997;DHT22;25688;52.338;21.072;2024-01-16T15:25:39;-4.30;99.90
39997;DHT22;25688;52.338;21.072;2024-01-16T15:28:05;-4.30;99.90